sensor_id;sensor_type;location;lat;lon;timestamp;pressure;altitude;pressure_sealevel;temperature;humidity
27958;BME280;15295;42.658;23.374;2023-04-23T00:01:24;94543.91;;;14.70;47.68
27958;BME280;15295;42.658;23.374;2023-04-23T00:03:57;94556.47;;;14.71;47.79
27958;BME280;15295;42.658;23.374;2023-04-23T00:06:23;94529.59;;;14.39;48.29
27958;BME280;15295;42.658;23.374;2023-04-23T00:08:56;94561.53;;;14.53;48.68
27958;BME280;15295;42.658;23.374;2023-04-23T00:11:26;94497.09;;;13.91;49.49
27958;BME280;15295;42.658;23.374;2023-04-23T00:14:01;94486.34;;;14.01;49.34
27958;BME280;15295;42.658;23.374;2023-04-23T00:16:26;94529.66;;;14.36;49.20
27958;BME280;15295;42.658;23.374;2023-04-23T00:18:52;94514.91;;;14.26;49.28
27958;BME280;15295;42.658;23.374;2023-04-23T00:21:21;94557.94;;;14.56;49.23
27958;BME280;15295;42.658;23.374;2023-04-23T00:23:47;94517.13;;;14.35;49.46
27958;BME280;15295;42.658;23.374;2023-04-23T00:26:12;94530.78;;;14.38;49.31
27958;BME280;15295;42.658;23.374;2023-04-23T00:28:38;94544.34;;;14.49;49.37
27958;BME280;15295;42.658;23.374;2023-04-23T00:31:06;94536.00;;;14.52;49.20
27958;BME280;15295;42.658;23.374;2023-04-23T00:33:33;94551.88;;;14.64;49.05
27958;BME280;15295;42.658;23.374;2023-04-23T00:35:58;94537.22;;;14.51;49.17
27958;BME280;15295;42.658;23.374;2023-04-23T00:38:27;94526.28;;;14.48;48.74
27958;BME280;15295;42.658;23.374;2023-04-23T00:40:54;94553.38;;;14.69;48.71
27958;BME280;15295;42.658;23.374;2023-04-23T00:43:20;94545.47;;;14.71;48.42
27958;BME280;15295;42.658;23.374;2023-04-23T00:45:47;94541.16;;;14.70;48.62
27958;BME280;15295;42.658;23.374;2023-04-23T00:48:15;94521.97;;;14.47;48.37
27958;BME280;15295;42.658;23.374;2023-04-23T00:50:41;94500.63;;;14.35;48.34
27958;BME280;15295;42.658;23.374;2023-04-23T00:53:09;94513.25;;;14.52;48.46
27958;BME280;15295;42.658;23.374;2023-04-23T00:55:35;94537.28;;;14.67;47.99
27958;BME280;15295;42.658;23.374;2023-04-23T00:58:02;94530.09;;;14.54;48.05
27958;BME280;15295;42.658;23.374;2023-04-23T01:00:29;94543.69;;;14.61;47.87
27958;BME280;15295;42.658;23.374;2023-04-23T01:02:58;94506.88;;;14.35;48.19
27958;BME280;15295;42.658;23.374;2023-04-23T01:05:25;94519.09;;;14.34;47.94
27958;BME280;15295;42.658;23.374;2023-04-23T01:07:52;94544.25;;;14.52;48.04
27958;BME280;15295;42.658;23.374;2023-04-23T01:10:18;94539.09;;;14.54;47.67
27958;BME280;15295;42.658;23.374;2023-04-23T01:12:47;94543.84;;;14.54;48.02
27958;BME280;15295;42.658;23.374;2023-04-23T01:15:13;94505.44;;;14.27;47.71
27958;BME280;15295;42.658;23.374;2023-04-23T01:17:38;94546.59;;;14.54;47.96
27958;BME280;15295;42.658;23.374;2023-04-23T01:20:04;94530.09;;;14.34;48.34
27958;BME280;15295;42.658;23.374;2023-04-23T01:22:32;94535.44;;;14.41;48.07
27958;BME280;15295;42.658;23.374;2023-04-23T01:24:57;94515.66;;;14.30;48.09
27958;BME280;15295;42.658;23.374;2023-04-23T01:27:24;94510.94;;;14.27;47.94
27958;BME280;15295;42.658;23.374;2023-04-23T01:29:54;94496.97;;;14.18;48.00
27958;BME280;15295;42.658;23.374;2023-04-23T01:32:21;94535.50;;;14.38;47.86
27958;BME280;15295;42.658;23.374;2023-04-23T01:34:48;94550.81;;;14.39;48.05
27958;BME280;15295;42.658;23.374;2023-04-23T01:37:18;94552.44;;;14.36;47.89
27958;BME280;15295;42.658;23.374;2023-04-23T01:39:44;94534.47;;;14.09;48.64
27958;BME280;15295;42.658;23.374;2023-04-23T01:42:11;94549.56;;;14.20;48.45
27958;BME280;15295;42.658;23.374;2023-04-23T01:44:36;94530.09;;;14.11;48.47
27958;BME280;15295;42.658;23.374;2023-04-23T01:47:03;94546.53;;;14.15;48.46
27958;BME280;15295;42.658;23.374;2023-04-23T01:49:30;94532.34;;;13.73;48.83
27958;BME280;15295;42.658;23.374;2023-04-23T01:51:56;94519.31;;;13.54;48.92
27958;BME280;15295;42.658;23.374;2023-04-23T01:54:24;94541.06;;;13.68;48.68
27958;BME280;15295;42.658;23.374;2023-04-23T01:56:49;94498.41;;;13.37;48.90
27958;BME280;15295;42.658;23.374;2023-04-23T01:59:26;94572.34;;;13.74;49.44
27958;BME280;15295;42.658;23.374;2023-04-23T02:01:54;94544.34;;;13.60;49.27
27958;BME280;15295;42.658;23.374;2023-04-23T02:04:19;94527.97;;;13.53;49.29
27958;BME280;15295;42.658;23.374;2023-04-23T02:06:49;94540.47;;;13.57;49.72
27958;BME280;15295;42.658;23.374;2023-04-23T02:09:15;94546.78;;;13.54;49.58
27958;BME280;15295;42.658;23.374;2023-04-23T02:11:42;94520.97;;;13.25;50.13
27958;BME280;15295;42.658;23.374;2023-04-23T02:14:09;94554.00;;;13.45;50.59
27958;BME280;15295;42.658;23.374;2023-04-23T02:16:35;94506.06;;;12.96;50.84
27958;BME280;15295;42.658;23.374;2023-04-23T02:19:04;94559.69;;;13.31;50.88
27958;BME280;15295;42.658;23.374;2023-04-23T02:21:30;94566.84;;;13.25;51.22
27958;BME280;15295;42.658;23.374;2023-04-23T02:23:55;94566.69;;;13.35;50.84
27958;BME280;15295;42.658;23.374;2023-04-23T02:26:21;94535.72;;;13.08;51.26
27958;BME280;15295;42.658;23.374;2023-04-23T02:28:47;94537.94;;;13.17;51.15
27958;BME280;15295;42.658;23.374;2023-04-23T02:31:16;94564.38;;;13.30;51.37
27958;BME280;15295;42.658;23.374;2023-04-23T02:33:46;94544.69;;;13.12;51.49
27958;BME280;15295;42.658;23.374;2023-04-23T02:36:11;94550.09;;;13.15;51.45
27958;BME280;15295;42.658;23.374;2023-04-23T02:38:42;94560.41;;;13.35;51.19
27958;BME280;15295;42.658;23.374;2023-04-23T02:41:10;94520.00;;;13.12;51.21
27958;BME280;15295;42.658;23.374;2023-04-23T02:43:36;94504.69;;;13.11;51.26
27958;BME280;15295;42.658;23.374;2023-04-23T02:46:03;94517.50;;;13.21;50.97
27958;BME280;15295;42.658;23.374;2023-04-23T02:48:35;94554.34;;;13.47;50.99
27958;BME280;15295;42.658;23.374;2023-04-23T02:51:00;94551.78;;;13.36;50.82
27958;BME280;15295;42.658;23.374;2023-04-23T02:53:28;94518.22;;;13.25;50.81
27958;BME280;15295;42.658;23.374;2023-04-23T02:55:54;94559.72;;;13.54;50.74
27958;BME280;15295;42.658;23.374;2023-04-23T02:58:21;94575.19;;;13.67;50.12
27958;BME280;15295;42.658;23.374;2023-04-23T03:00:46;94539.06;;;13.46;50.34
27958;BME280;15295;42.658;23.374;2023-04-23T03:03:12;94557.41;;;13.52;49.82
27958;BME280;15295;42.658;23.374;2023-04-23T03:05:41;94555.84;;;13.51;49.73
27958;BME280;15295;42.658;23.374;2023-04-23T03:08:08;94560.84;;;13.56;49.72
27958;BME280;15295;42.658;23.374;2023-04-23T03:10:35;94564.44;;;13.53;49.85
27958;BME280;15295;42.658;23.374;2023-04-23T03:13:00;94542.34;;;13.37;49.40
27958;BME280;15295;42.658;23.374;2023-04-23T03:15:26;94535.06;;;13.27;49.46
27958;BME280;15295;42.658;23.374;2023-04-23T03:17:51;94572.78;;;13.46;49.67
27958;BME280;15295;42.658;23.374;2023-04-23T03:20:40;94545.69;;;13.22;49.83
27958;BME280;15295;42.658;23.374;2023-04-23T03:23:09;94556.72;;;13.18;49.86
27958;BME280;15295;42.658;23.374;2023-04-23T03:25:37;94556.38;;;13.16;49.85
27958;BME280;15295;42.658;23.374;2023-04-23T03:28:05;94547.50;;;13.05;50.29
27958;BME280;15295;42.658;23.374;2023-04-23T03:30:30;94562.31;;;13.11;50.06
27958;BME280;15295;42.658;23.374;2023-04-23T03:32:57;94534.75;;;12.91;50.30
27958;BME280;15295;42.658;23.374;2023-04-23T03:35:23;94545.38;;;12.89;50.46
27958;BME280;15295;42.658;23.374;2023-04-23T03:37:50;94550.06;;;12.89;50.42
27958;BME280;15295;42.658;23.374;2023-04-23T03:40:17;94556.34;;;12.89;50.54
27958;BME280;15295;42.658;23.374;2023-04-23T03:42:43;94549.72;;;12.83;50.61
27958;BME280;15295;42.658;23.374;2023-04-23T03:45:10;94589.13;;;12.96;51.17
27958;BME280;15295;42.658;23.374;2023-04-23T03:47:35;94559.59;;;12.81;51.04
27958;BME280;15295;42.658;23.374;2023-04-23T03:50:01;94561.50;;;12.84;50.83
27958;BME280;15295;42.658;23.374;2023-04-23T03:52:27;94586.09;;;12.91;50.91
27958;BME280;15295;42.658;23.374;2023-04-23T03:54:52;94576.28;;;12.90;50.83
27958;BME280;15295;42.658;23.374;2023-04-23T03:57:19;94532.38;;;12.63;50.94
27958;BME280;15295;42.658;23.374;2023-04-23T03:59:45;94599.72;;;12.98;50.69
27958;BME280;15295;42.658;23.374;2023-04-23T04:02:13;94583.19;;;12.71;50.84
27958;BME280;15295;42.658;23.374;2023-04-23T04:04:38;94597.31;;;12.70;51.18
27958;BME280;15295;42.658;23.374;2023-04-23T04:07:04;94595.84;;;12.62;51.78
27958;BME280;15295;42.658;23.374;2023-04-23T04:09:32;94605.91;;;12.72;51.77
27958;BME280;15295;42.658;23.374;2023-04-23T04:12:03;94610.66;;;12.68;51.94
27958;BME280;15295;42.658;23.374;2023-04-23T04:14:30;94569.78;;;12.47;51.92
27958;BME280;15295;42.658;23.374;2023-04-23T04:16:55;94599.22;;;12.76;51.94
27958;BME280;15295;42.658;23.374;2023-04-23T04:19:22;94561.56;;;12.47;52.36
27958;BME280;15295;42.658;23.374;2023-04-23T04:21:51;94570.78;;;12.60;52.21
27958;BME280;15295;42.658;23.374;2023-04-23T04:24:17;94556.72;;;12.58;51.99
27958;BME280;15295;42.658;23.374;2023-04-23T04:26:44;94547.75;;;12.54;52.08
27958;BME280;15295;42.658;23.374;2023-04-23T04:29:11;94592.53;;;12.77;52.07
27958;BME280;15295;42.658;23.374;2023-04-23T04:31:38;94585.06;;;12.78;52.21
27958;BME280;15295;42.658;23.374;2023-04-23T04:34:07;94598.16;;;12.97;51.95
27958;BME280;15295;42.658;23.374;2023-04-23T04:36:35;94591.50;;;12.94;51.81
27958;BME280;15295;42.658;23.374;2023-04-23T04:39:00;94587.75;;;12.85;51.84
27958;BME280;15295;42.658;23.374;2023-04-23T04:41:28;94604.72;;;13.03;51.68
27958;BME280;15295;42.658;23.374;2023-04-23T04:43:56;94591.66;;;12.84;52.08
27958;BME280;15295;42.658;23.374;2023-04-23T04:46:23;94598.41;;;12.76;52.22
27958;BME280;15295;42.658;23.374;2023-04-23T04:48:51;94603.66;;;12.63;52.64
27958;BME280;15295;42.658;23.374;2023-04-23T04:51:19;94619.69;;;12.98;52.33
27958;BME280;15295;42.658;23.374;2023-04-23T04:53:45;94615.53;;;12.87;52.80
27958;BME280;15295;42.658;23.374;2023-04-23T04:56:11;94634.84;;;13.10;52.73
27958;BME280;15295;42.658;23.374;2023-04-23T04:58:38;94624.88;;;13.23;52.84
27958;BME280;15295;42.658;23.374;2023-04-23T05:01:08;94626.41;;;13.28;52.52
27958;BME280;15295;42.658;23.374;2023-04-23T05:03:34;94605.91;;;13.05;52.44
27958;BME280;15295;42.658;23.374;2023-04-23T05:06:01;94630.69;;;13.29;52.36
27958;BME280;15295;42.658;23.374;2023-04-23T05:08:26;94612.25;;;13.29;52.25
27958;BME280;15295;42.658;23.374;2023-04-23T05:10:53;94639.75;;;13.52;52.57
27958;BME280;15295;42.658;23.374;2023-04-23T05:13:20;94611.22;;;13.46;52.50
27958;BME280;15295;42.658;23.374;2023-04-23T05:15:46;94609.50;;;13.56;52.03
27958;BME280;15295;42.658;23.374;2023-04-23T05:18:14;94594.50;;;13.64;51.52
27958;BME280;15295;42.658;23.374;2023-04-23T05:20:44;94614.09;;;13.89;51.10
27958;BME280;15295;42.658;23.374;2023-04-23T05:23:17;94640.53;;;14.29;50.90
27958;BME280;15295;42.658;23.374;2023-04-23T05:25:43;94618.84;;;14.35;50.29
27958;BME280;15295;42.658;23.374;2023-04-23T05:28:09;94610.88;;;14.40;50.03
27958;BME280;15295;42.658;23.374;2023-04-23T05:30:40;94612.44;;;14.61;49.72
27958;BME280;15295;42.658;23.374;2023-04-23T05:33:05;94612.59;;;14.74;49.34
27958;BME280;15295;42.658;23.374;2023-04-23T05:35:32;94622.69;;;14.80;49.04
27958;BME280;15295;42.658;23.374;2023-04-23T05:37:57;94620.50;;;14.91;48.57
27958;BME280;15295;42.658;23.374;2023-04-23T05:40:25;94611.69;;;14.80;48.48
27958;BME280;15295;42.658;23.374;2023-04-23T05:42:53;94648.84;;;15.27;48.21
27958;BME280;15295;42.658;23.374;2023-04-23T05:45:19;94648.84;;;15.47;47.82
27958;BME280;15295;42.658;23.374;2023-04-23T05:47:45;94620.63;;;15.43;47.41
27958;BME280;15295;42.658;23.374;2023-04-23T05:50:12;94634.53;;;15.72;46.98
27958;BME280;15295;42.658;23.374;2023-04-23T05:52:41;94618.00;;;15.72;46.55
27958;BME280;15295;42.658;23.374;2023-04-23T05:55:09;94645.50;;;16.07;46.21
27958;BME280;15295;42.658;23.374;2023-04-23T05:57:41;94633.59;;;16.10;46.16
27958;BME280;15295;42.658;23.374;2023-04-23T06:00:09;94631.53;;;16.14;45.85
27958;BME280;15295;42.658;23.374;2023-04-23T06:02:37;94611.53;;;16.10;45.66
27958;BME280;15295;42.658;23.374;2023-04-23T06:05:03;94610.94;;;16.19;45.39
27958;BME280;15295;42.658;23.374;2023-04-23T06:07:37;94629.34;;;16.38;44.54
27958;BME280;15295;42.658;23.374;2023-04-23T06:10:06;94657.03;;;16.67;44.78
27958;BME280;15295;42.658;23.374;2023-04-23T06:12:35;94648.66;;;16.70;44.90
27958;BME280;15295;42.658;23.374;2023-04-23T06:15:04;94608.94;;;16.52;44.74
27958;BME280;15295;42.658;23.374;2023-04-23T06:17:31;94633.19;;;16.89;45.48
27958;BME280;15295;42.658;23.374;2023-04-23T06:19:59;94629.44;;;17.37;46.54
27958;BME280;15295;42.658;23.374;2023-04-23T06:22:25;94630.72;;;17.73;43.93
27958;BME280;15295;42.658;23.374;2023-04-23T06:24:57;94623.66;;;17.98;44.33
27958;BME280;15295;42.658;23.374;2023-04-23T06:27:25;94647.19;;;18.27;43.01
27958;BME280;15295;42.658;23.374;2023-04-23T06:29:57;94613.34;;;18.23;42.34
27958;BME280;15295;42.658;23.374;2023-04-23T06:32:31;94647.94;;;18.40;42.19
27958;BME280;15295;42.658;23.374;2023-04-23T06:35:01;94636.31;;;18.45;41.78
27958;BME280;15295;42.658;23.374;2023-04-23T06:37:29;94630.78;;;18.45;41.51
27958;BME280;15295;42.658;23.374;2023-04-23T06:39:56;94624.56;;;18.67;41.48
27958;BME280;15295;42.658;23.374;2023-04-23T06:42:25;94624.06;;;18.81;40.89
27958;BME280;15295;42.658;23.374;2023-04-23T06:44:52;94612.34;;;18.77;40.99
27958;BME280;15295;42.658;23.374;2023-04-23T06:47:18;94648.81;;;19.18;41.09
27958;BME280;15295;42.658;23.374;2023-04-23T06:49:45;94627.66;;;19.34;41.59
27958;BME280;15295;42.658;23.374;2023-04-23T06:52:15;94646.84;;;19.62;40.03
27958;BME280;15295;42.658;23.374;2023-04-23T06:54:41;94621.66;;;19.48;40.76
27958;BME280;15295;42.658;23.374;2023-04-23T06:57:13;94650.88;;;19.70;40.96
27958;BME280;15295;42.658;23.374;2023-04-23T06:59:38;94592.28;;;19.59;40.41
27958;BME280;15295;42.658;23.374;2023-04-23T07:02:04;94600.81;;;19.74;39.92
27958;BME280;15295;42.658;23.374;2023-04-23T07:04:30;94612.00;;;19.92;39.32
27958;BME280;15295;42.658;23.374;2023-04-23T07:06:56;94624.78;;;20.20;39.42
27958;BME280;15295;42.658;23.374;2023-04-23T07:09:21;94637.34;;;20.70;39.40
27958;BME280;15295;42.658;23.374;2023-04-23T07:11:47;94640.78;;;20.83;38.72
27958;BME280;15295;42.658;23.374;2023-04-23T07:14:21;94622.56;;;20.82;38.63
27958;BME280;15295;42.658;23.374;2023-04-23T07:16:50;94649.78;;;21.05;37.88
27958;BME280;15295;42.658;23.374;2023-04-23T07:19:16;94647.31;;;21.16;37.62
27958;BME280;15295;42.658;23.374;2023-04-23T07:21:41;94639.59;;;21.20;37.17
27958;BME280;15295;42.658;23.374;2023-04-23T07:24:07;94641.28;;;21.09;37.32
27958;BME280;15295;42.658;23.374;2023-04-23T07:26:33;94643.28;;;21.26;37.58
27958;BME280;15295;42.658;23.374;2023-04-23T07:28:58;94629.38;;;21.35;36.78
27958;BME280;15295;42.658;23.374;2023-04-23T07:31:24;94624.13;;;21.28;36.61
27958;BME280;15295;42.658;23.374;2023-04-23T07:33:51;94611.31;;;21.40;37.31
27958;BME280;15295;42.658;23.374;2023-04-23T08:08:40;94640.44;;;21.63;36.80
27958;BME280;15295;42.658;23.374;2023-04-23T08:11:08;94642.28;;;21.84;36.32
27958;BME280;15295;42.658;23.374;2023-04-23T10:00:40;94559.22;;;26.89;26.32
27958;BME280;15295;42.658;23.374;2023-04-23T10:03:27;94528.69;;;26.54;25.72
27958;BME280;15295;42.658;23.374;2023-04-23T10:05:54;94544.69;;;26.42;25.41
27958;BME280;15295;42.658;23.374;2023-04-23T10:08:20;94534.31;;;26.54;24.94
27958;BME280;15295;42.658;23.374;2023-04-23T10:10:46;94560.97;;;26.75;25.35
27958;BME280;15295;42.658;23.374;2023-04-23T10:13:12;94555.34;;;26.75;25.04
27958;BME280;15295;42.658;23.374;2023-04-23T10:15:39;94539.22;;;26.64;24.96
27958;BME280;15295;42.658;23.374;2023-04-23T10:18:07;94548.91;;;26.69;24.69
27958;BME280;15295;42.658;23.374;2023-04-23T10:20:33;94527.44;;;26.55;24.68
27958;BME280;15295;42.658;23.374;2023-04-23T10:23:00;94498.97;;;26.67;25.31
27958;BME280;15295;42.658;23.374;2023-04-23T10:25:32;94521.28;;;27.04;25.02
27958;BME280;15295;42.658;23.374;2023-04-23T10:28:02;94539.88;;;26.96;24.57
27958;BME280;15295;42.658;23.374;2023-04-23T10:30:32;94515.25;;;26.58;25.47
27958;BME280;15295;42.658;23.374;2023-04-23T10:33:05;94498.28;;;26.30;25.54
27958;BME280;15295;42.658;23.374;2023-04-23T10:35:33;94475.19;;;25.73;25.52
27958;BME280;15295;42.658;23.374;2023-04-23T10:38:00;94513.09;;;26.05;25.75
27958;BME280;15295;42.658;23.374;2023-04-23T10:40:29;94481.22;;;25.91;24.75
27958;BME280;15295;42.658;23.374;2023-04-23T10:43:00;94501.75;;;26.20;24.35
27958;BME280;15295;42.658;23.374;2023-04-23T10:45:29;94510.75;;;26.35;24.08
27958;BME280;15295;42.658;23.374;2023-04-23T10:47:57;94498.63;;;26.49;24.62
27958;BME280;15295;42.658;23.374;2023-04-23T10:50:25;94504.56;;;26.62;24.55
27958;BME280;15295;42.658;23.374;2023-04-23T10:52:51;94488.81;;;26.75;23.81
27958;BME280;15295;42.658;23.374;2023-04-23T10:55:26;94492.69;;;26.84;23.58
27958;BME280;15295;42.658;23.374;2023-04-23T10:57:58;94496.75;;;26.88;23.47
27958;BME280;15295;42.658;23.374;2023-04-23T11:00:25;94497.81;;;27.02;23.58
27958;BME280;15295;42.658;23.374;2023-04-23T11:02:51;94491.47;;;27.12;23.83
27958;BME280;15295;42.658;23.374;2023-04-23T11:05:34;94460.63;;;27.07;23.61
27958;BME280;15295;42.658;23.374;2023-04-23T11:08:06;94483.63;;;27.44;23.42
27958;BME280;15295;42.658;23.374;2023-04-23T11:10:50;94444.34;;;27.33;22.54
27958;BME280;15295;42.658;23.374;2023-04-23T11:13:21;94468.59;;;27.41;22.70
27958;BME280;15295;42.658;23.374;2023-04-23T11:16:25;94484.16;;;27.54;23.42
27958;BME280;15295;42.658;23.374;2023-04-23T11:22:15;94458.38;;;27.72;23.34
27958;BME280;15295;42.658;23.374;2023-04-23T11:35:07;94463.69;;;27.09;21.97
27958;BME280;15295;42.658;23.374;2023-04-23T11:37:38;94464.97;;;27.13;22.40
27958;BME280;15295;42.658;23.374;2023-04-23T11:40:11;94453.09;;;26.70;21.63
27958;BME280;15295;42.658;23.374;2023-04-23T11:42:45;94458.53;;;26.85;21.77
27958;BME280;15295;42.658;23.374;2023-04-23T11:47:49;94442.75;;;27.10;20.85
27958;BME280;15295;42.658;23.374;2023-04-23T11:50:19;94423.91;;;27.27;20.83
27958;BME280;15295;42.658;23.374;2023-04-23T11:52:45;94443.31;;;27.52;20.96
27958;BME280;15295;42.658;23.374;2023-04-23T11:55:11;94422.91;;;27.35;21.45
27958;BME280;15295;42.658;23.374;2023-04-23T11:57:48;94425.19;;;27.31;21.60
27958;BME280;15295;42.658;23.374;2023-04-23T12:00:20;94426.22;;;27.39;21.97
27958;BME280;15295;42.658;23.374;2023-04-23T12:02:59;94432.38;;;27.71;21.41
27958;BME280;15295;42.658;23.374;2023-04-23T12:06:01;94418.06;;;27.69;20.59
27958;BME280;15295;42.658;23.374;2023-04-23T12:08:22;94419.09;;;27.55;21.06
27958;BME280;15295;42.658;23.374;2023-04-23T12:10:49;94412.44;;;27.52;20.95
27958;BME280;15295;42.658;23.374;2023-04-23T12:13:23;94407.84;;;27.33;20.70
27958;BME280;15295;42.658;23.374;2023-04-23T12:15:54;94417.31;;;27.46;20.08
27958;BME280;15295;42.658;23.374;2023-04-23T12:18:42;94423.19;;;27.48;19.87
27958;BME280;15295;42.658;23.374;2023-04-23T12:23:36;94412.47;;;27.41;20.07
27958;BME280;15295;42.658;23.374;2023-04-23T12:26:02;94415.75;;;27.57;19.92
27958;BME280;15295;42.658;23.374;2023-04-23T12:28:29;94414.78;;;27.43;20.25
27958;BME280;15295;42.658;23.374;2023-04-23T12:31:03;94403.00;;;27.28;20.25
27958;BME280;15295;42.658;23.374;2023-04-23T12:33:29;94405.28;;;27.18;20.14
27958;BME280;15295;42.658;23.374;2023-04-23T12:35:55;94404.75;;;27.03;20.17
27958;BME280;15295;42.658;23.374;2023-04-23T12:38:28;94399.44;;;27.22;19.83
27958;BME280;15295;42.658;23.374;2023-04-23T12:40:56;94402.25;;;27.22;19.89
27958;BME280;15295;42.658;23.374;2023-04-23T12:43:22;94395.81;;;26.99;19.43
27958;BME280;15295;42.658;23.374;2023-04-23T12:45:48;94373.38;;;26.88;19.88
27958;BME280;15295;42.658;23.374;2023-04-23T12:48:16;94396.06;;;26.79;19.85
27958;BME280;15295;42.658;23.374;2023-04-23T12:50:42;94392.19;;;26.71;19.63
27958;BME280;15295;42.658;23.374;2023-04-23T12:53:07;94383.50;;;26.63;20.14
27958;BME280;15295;42.658;23.374;2023-04-23T12:55:33;94383.81;;;26.82;19.95
27958;BME280;15295;42.658;23.374;2023-04-23T12:58:05;94376.69;;;26.81;19.27
27958;BME280;15295;42.658;23.374;2023-04-23T13:00:31;94383.06;;;26.87;19.35
27958;BME280;15295;42.658;23.374;2023-04-23T13:02:57;94389.63;;;26.62;20.05
27958;BME280;15295;42.658;23.374;2023-04-23T13:05:22;94384.00;;;26.51;19.60
27958;BME280;15295;42.658;23.374;2023-04-23T13:07:48;94385.00;;;26.48;20.36
27958;BME280;15295;42.658;23.374;2023-04-23T13:10:14;94388.59;;;26.59;20.18
27958;BME280;15295;42.658;23.374;2023-04-23T13:12:39;94383.72;;;26.54;20.09
27958;BME280;15295;42.658;23.374;2023-04-23T13:15:07;94386.25;;;26.41;20.04
27958;BME280;15295;42.658;23.374;2023-04-23T13:17:33;94390.78;;;26.28;19.80
27958;BME280;15295;42.658;23.374;2023-04-23T13:20:05;94387.72;;;26.26;20.07
27958;BME280;15295;42.658;23.374;2023-04-23T13:22:31;94388.25;;;26.30;19.73
27958;BME280;15295;42.658;23.374;2023-04-23T13:24:57;94381.81;;;26.18;19.96
27958;BME280;15295;42.658;23.374;2023-04-23T13:27:24;94379.28;;;26.15;20.12
27958;BME280;15295;42.658;23.374;2023-04-23T13:29:50;94379.50;;;26.11;20.20
27958;BME280;15295;42.658;23.374;2023-04-23T13:32:15;94377.50;;;26.17;19.61
27958;BME280;15295;42.658;23.374;2023-04-23T13:34:41;94369.59;;;26.16;19.52
27958;BME280;15295;42.658;23.374;2023-04-23T13:37:06;94377.00;;;26.19;19.58
27958;BME280;15295;42.658;23.374;2023-04-23T13:39:35;94370.34;;;26.11;20.15
27958;BME280;15295;42.658;23.374;2023-04-23T13:42:01;94370.63;;;26.18;19.58
27958;BME280;15295;42.658;23.374;2023-04-23T13:44:31;94363.75;;;26.19;20.01
27958;BME280;15295;42.658;23.374;2023-04-23T13:46:57;94367.47;;;25.99;19.62
27958;BME280;15295;42.658;23.374;2023-04-23T13:49:24;94365.38;;;25.89;19.36
27958;BME280;15295;42.658;23.374;2023-04-23T13:51:50;94359.00;;;25.88;19.79
27958;BME280;15295;42.658;23.374;2023-04-23T13:54:18;94358.84;;;25.61;19.80
27958;BME280;15295;42.658;23.374;2023-04-23T13:56:44;94353.25;;;25.55;19.71
27958;BME280;15295;42.658;23.374;2023-04-23T13:59:09;94360.41;;;25.62;19.85
27958;BME280;15295;42.658;23.374;2023-04-23T14:01:34;94357.38;;;25.65;20.20
27958;BME280;15295;42.658;23.374;2023-04-23T14:04:00;94356.84;;;25.61;20.19
27958;BME280;15295;42.658;23.374;2023-04-23T14:06:28;94351.63;;;25.43;20.30
27958;BME280;15295;42.658;23.374;2023-04-23T14:08:53;94370.03;;;25.55;20.28
27958;BME280;15295;42.658;23.374;2023-04-23T14:11:19;94364.47;;;25.66;20.49
27958;BME280;15295;42.658;23.374;2023-04-23T14:13:46;94350.09;;;25.90;19.76
27958;BME280;15295;42.658;23.374;2023-04-23T14:16:11;94358.28;;;25.93;19.70
27958;BME280;15295;42.658;23.374;2023-04-23T14:18:37;94353.19;;;25.97;20.18
27958;BME280;15295;42.658;23.374;2023-04-23T14:21:02;94357.19;;;25.85;21.07
27958;BME280;15295;42.658;23.374;2023-04-23T14:24:21;94357.97;;;25.80;20.86
27958;BME280;15295;42.658;23.374;2023-04-23T14:26:48;94359.19;;;25.74;21.22
27958;BME280;15295;42.658;23.374;2023-04-23T14:31:46;94349.56;;;25.86;21.97
27958;BME280;15295;42.658;23.374;2023-04-23T14:34:12;94332.97;;;25.71;21.80
27958;BME280;15295;42.658;23.374;2023-04-23T14:36:37;94334.97;;;25.65;22.27
27958;BME280;15295;42.658;23.374;2023-04-23T14:39:03;94334.72;;;25.63;23.51
27958;BME280;15295;42.658;23.374;2023-04-23T14:41:31;94343.09;;;25.63;24.43
27958;BME280;15295;42.658;23.374;2023-04-23T14:44:01;94331.31;;;25.48;24.77
27958;BME280;15295;42.658;23.374;2023-04-23T14:46:26;94332.09;;;25.17;25.01
27958;BME280;15295;42.658;23.374;2023-04-23T14:48:52;94338.44;;;25.12;24.84
27958;BME280;15295;42.658;23.374;2023-04-23T14:51:25;94340.53;;;25.23;25.19
27958;BME280;15295;42.658;23.374;2023-04-23T14:53:51;94346.06;;;25.17;25.15
27958;BME280;15295;42.658;23.374;2023-04-23T14:56:17;94339.56;;;24.95;25.67
27958;BME280;15295;42.658;23.374;2023-04-23T14:58:48;94334.50;;;24.99;25.54
27958;BME280;15295;42.658;23.374;2023-04-23T15:01:19;94342.28;;;24.89;25.15
27958;BME280;15295;42.658;23.374;2023-04-23T15:03:44;94345.03;;;24.84;25.27
27958;BME280;15295;42.658;23.374;2023-04-23T15:06:11;94342.94;;;24.79;25.73
27958;BME280;15295;42.658;23.374;2023-04-23T15:08:37;94336.66;;;24.58;25.68
27958;BME280;15295;42.658;23.374;2023-04-23T15:11:02;94335.72;;;24.67;25.63
27958;BME280;15295;42.658;23.374;2023-04-23T15:16:33;94333.41;;;24.65;25.46
27958;BME280;15295;42.658;23.374;2023-04-23T15:19:01;94332.91;;;24.67;25.24
27958;BME280;15295;42.658;23.374;2023-04-23T15:21:32;94320.16;;;24.60;24.96
27958;BME280;15295;42.658;23.374;2023-04-23T15:23:58;94329.63;;;24.68;24.66
27958;BME280;15295;42.658;23.374;2023-04-23T15:26:24;94312.97;;;24.53;24.04
27958;BME280;15295;42.658;23.374;2023-04-23T15:28:49;94323.22;;;24.62;23.46
27958;BME280;15295;42.658;23.374;2023-04-23T15:31:15;94330.13;;;24.67;23.32
27958;BME280;15295;42.658;23.374;2023-04-23T15:33:40;94320.00;;;24.69;23.32
27958;BME280;15295;42.658;23.374;2023-04-23T15:36:06;94320.38;;;24.57;23.27
27958;BME280;15295;42.658;23.374;2023-04-23T15:38:32;94321.22;;;24.68;23.18